Station History

Weather Underground - logo

Station Historical Data
Daily Summary for November 22, 2017 Units:  English    Metric   Both
« Previous Day
Next Day »
Daily Weekly Monthly Yearly Custom
  High: Low: Average:
Temperature: 74.4 °F 43.9 °F 57.2 °F
Dew Point: 53.2 °F 42.0 °F 49 °F
Humidity: 95 % 44 % 77 %
Wind Speed: 3.5 mph 0.0 mph 0.3 mph
Wind Gust: 3.5 mph - -
Wind:- - West
Pressure: 30.21 in 30.07 in -
Precipitation: 0.00 in    
Historical Graphs
 
 
Tabular Data for November 22, 2017
Time Temperature Dew Point Pressure Wind Wind Speed Wind Gust Humidity Rainfall Rate (Hourly)
00:00 51.8 °F 48.1 °F 30.15 in Calm     87 % 0.00 in
00:20 51.6 °F 48.5 °F 30.14 in Calm     89 % 0.00 in
00:30 51.4 °F 48.0 °F 30.14 in Calm     88 % 0.00 in
00:35 51.1 °F 47.7 °F 30.14 in Calm     88 % 0.00 in
00:40 50.7 °F 47.3 °F 30.15 in Calm     88 % 0.00 in
00:45 50.2 °F 46.8 °F 30.15 in Calm     88 % 0.00 in
00:50 49.7 °F 46.6 °F 30.14 in Calm     89 % 0.00 in
00:55 49.5 °F 46.7 °F 30.14 in Calm     90 % 0.00 in
01:00 49.2 °F 46.4 °F 30.14 in Calm     90 % 0.00 in
01:02 49.1 °F 46.3 °F 30.14 in Calm     90 % 0.00 in
01:07 48.9 °F 46.1 °F 30.14 in Calm     90 % 0.00 in
01:17 48.4 °F 45.9 °F 30.14 in Calm     91 % 0.00 in
01:22 48.2 °F 45.7 °F 30.15 in Calm     91 % 0.00 in
01:27 48.2 °F 46.0 °F 30.15 in Calm     92 % 0.00 in
01:32 48.1 °F 45.9 °F 30.15 in Calm     92 % 0.00 in
01:37 48.0 °F 45.8 °F 30.16 in Calm     92 % 0.00 in
01:42 48.0 °F 45.8 °F 30.15 in Calm     92 % 0.00 in
01:47 48.0 °F 45.8 °F 30.15 in Calm     92 % 0.00 in
01:52 48.1 °F 46.2 °F 30.15 in Calm     93 % 0.00 in
01:57 48.1 °F 46.2 °F 30.15 in Calm     93 % 0.00 in
02:02 48.1 °F 46.2 °F 30.16 in Calm     93 % 0.00 in
02:07 48.3 °F 46.4 °F 30.16 in Calm     93 % 0.00 in
02:13 48.2 °F 46.3 °F 30.16 in Calm     93 % 0.00 in
02:18 48.0 °F 46.1 °F 30.15 in Calm     93 % 0.00 in
02:23 47.7 °F 45.5 °F 30.15 in Calm     92 % 0.00 in
02:28 47.4 °F 45.2 °F 30.15 in Calm     92 % 0.00 in
02:33 47.2 °F 45.0 °F 30.15 in Calm     92 % 0.00 in
02:35 47.2 °F 45.0 °F 30.15 in Calm     92 % 0.00 in
02:40 47.1 °F 45.2 °F 30.15 in Calm     93 % 0.00 in
02:50 47.0 °F 45.1 °F 30.15 in Calm     93 % 0.00 in
02:55 46.8 °F 44.6 °F 30.15 in Calm     92 % 0.00 in
03:00 46.7 °F 44.8 °F 30.15 in Calm     93 % 0.00 in
03:05 46.6 °F 44.7 °F 30.15 in Calm     93 % 0.00 in
03:10 46.7 °F 44.8 °F 30.15 in Calm     93 % 0.00 in
03:15 46.7 °F 44.8 °F 30.15 in Calm     93 % 0.00 in
03:20 46.5 °F 44.6 °F 30.15 in Calm     93 % 0.00 in
03:25 46.3 °F 44.4 °F 30.15 in Calm     93 % 0.00 in
03:30 46.1 °F 44.2 °F 30.15 in Calm     93 % 0.00 in
03:35 46.3 °F 44.4 °F 30.15 in Calm     93 % 0.00 in
03:45 46.7 °F 45.1 °F 30.14 in Calm     94 % 0.00 in
03:50 46.7 °F 44.8 °F 30.14 in Calm     93 % 0.00 in
03:55 46.7 °F 44.8 °F 30.15 in Calm     93 % 0.00 in
04:00 46.6 °F 44.7 °F 30.14 in Calm     93 % 0.00 in
04:05 46.5 °F 44.6 °F 30.14 in Calm     93 % 0.00 in
04:10 46.3 °F 44.4 °F 30.14 in Calm     93 % 0.00 in
04:15 46.3 °F 44.4 °F 30.14 in Calm     93 % 0.00 in
04:20 46.4 °F 44.5 °F 30.14 in Calm     93 % 0.00 in
04:25 46.3 °F 44.4 °F 30.14 in Calm     93 % 0.00 in
04:30 46.4 °F 44.5 °F 30.14 in Calm     93 % 0.00 in
04:35 46.3 °F 44.4 °F 30.14 in Calm     93 % 0.00 in
04:40 46.2 °F 44.3 °F 30.15 in Calm     93 % 0.00 in
04:50 46.0 °F 44.1 °F 30.15 in Calm     93 % 0.00 in
04:55 45.8 °F 43.9 °F 30.15 in Calm     93 % 0.00 in
05:00 45.6 °F 43.7 °F 30.15 in Calm     93 % 0.00 in
05:05 45.5 °F 43.6 °F 30.15 in Calm     93 % 0.00 in
05:10 45.4 °F 43.5 °F 30.16 in Calm     93 % 0.00 in
05:15 45.1 °F 43.2 °F 30.16 in Calm     93 % 0.00 in
05:20 44.9 °F 43.0 °F 30.16 in Calm     93 % 0.00 in
05:26 44.5 °F 42.3 °F 30.16 in Calm     92 % 0.00 in
05:31 44.2 °F 42.0 °F 30.16 in Calm     92 % 0.00 in
05:41 44.2 °F 42.3 °F 30.17 in Calm     93 % 0.00 in
05:46 44.4 °F 42.8 °F 30.17 in Calm     94 % 0.00 in
05:51 44.4 °F 42.8 °F 30.17 in Calm     94 % 0.00 in
05:56 44.4 °F 42.8 °F 30.17 in Calm     94 % 0.00 in
06:01 44.4 °F 42.8 °F 30.18 in Calm     94 % 0.00 in
06:06 44.4 °F 42.8 °F 30.17 in Calm     94 % 0.00 in
06:11 44.3 °F 42.7 °F 30.17 in Calm     94 % 0.00 in
06:21 44.1 °F 42.5 °F 30.17 in Calm     94 % 0.00 in
06:26 44.0 °F 42.4 °F 30.18 in Calm     94 % 0.00 in
06:31 43.9 °F 42.3 °F 30.18 in Calm     94 % 0.00 in
06:36 43.9 °F 42.3 °F 30.18 in Calm     94 % 0.00 in
06:41 44.0 °F 42.4 °F 30.19 in Calm     94 % 0.00 in
06:46 44.1 °F 42.5 °F 30.18 in Calm     94 % 0.00 in
07:01 44.6 °F 43.3 °F 30.19 in Calm     95 % 0.00 in
07:11 44.9 °F 43.3 °F 30.19 in Calm     94 % 0.00 in
07:12 44.9 °F 43.3 °F 30.19 in Calm     94 % 0.00 in
07:17 45.1 °F 43.5 °F 30.19 in Calm     94 % 0.00 in
07:22 45.7 °F 44.4 °F 30.19 in Calm     95 % 0.00 in
07:27 46.2 °F 44.8 °F 30.19 in Calm     95 % 0.00 in
07:32 46.7 °F 45.3 °F 30.20 in Calm     95 % 0.00 in
07:42 48.1 °F 46.5 °F 30.20 in Calm     94 % 0.00 in
07:47 49.0 °F 47.1 °F 30.20 in Calm     93 % 0.00 in
07:52 49.9 °F 47.4 °F 30.20 in Calm     91 % 0.00 in
07:57 50.8 °F 48.0 °F 30.21 in Calm     90 % 0.00 in
08:07 52.8 °F 48.7 °F 30.20 in Calm     86 % 0.00 in
08:12 53.4 °F 49.0 °F 30.20 in Calm     85 % 0.00 in
08:17 54.1 °F 49.4 °F 30.20 in Calm     84 % 0.00 in
08:22 54.9 °F 49.5 °F 30.20 in Calm     82 % 0.00 in
08:27 55.7 °F 49.6 °F 30.20 in Calm     80 % 0.00 in
08:32 56.3 °F 49.9 °F 30.20 in WNW 1.2 mph 1.2 mph 79 % 0.00 in
08:42 57.3 °F 49.8 °F 30.20 in Calm     76 % 0.00 in
08:47 57.7 °F 50.2 °F 30.20 in Calm     76 % 0.00 in
08:52 58.6 °F 50.7 °F 30.20 in Calm     75 % 0.00 in
09:02 59.4 °F 50.4 °F 30.20 in Calm     72 % 0.00 in
09:07 59.9 °F 50.1 °F 30.20 in Calm     70 % 0.00 in
09:17 61.7 °F 51.8 °F 30.19 in ESE 1.2 mph 1.2 mph 70 % 0.00 in
09:37 62.9 °F 51.0 °F 30.19 in Calm     65 % 0.00 in
09:42 62.9 °F 51.0 °F 30.19 in WNW 1.0 mph 1.0 mph 65 % 0.00 in
09:47 63.0 °F 51.9 °F 30.19 in SSE 1.2 mph 1.2 mph 67 % 0.00 in
09:52 63.7 °F 51.7 °F 30.19 in South 1.2 mph   65 % 0.00 in
09:57 64.1 °F 50.8 °F 30.19 in WNW 1.2 mph 1.2 mph 62 % 0.00 in
10:02 64.1 °F 51.7 °F 30.19 in East 1.2 mph   64 % 0.00 in
10:07 64.5 °F 51.6 °F 30.19 in SSE 1.2 mph 1.2 mph 63 % 0.00 in
10:12 64.7 °F 51.4 °F 30.19 in NNW 2.3 mph 2.3 mph 62 % 0.00 in
10:17 64.6 °F 51.3 °F 30.18 in NNW 1.2 mph 1.2 mph 62 % 0.00 in
10:22 64.7 °F 50.9 °F 30.18 in NW 1.2 mph 1.2 mph 61 % 0.00 in
10:32 65.3 °F 51.5 °F 30.18 in Calm   0.1 mph 61 % 0.00 in
10:37 65.6 °F 51.3 °F 30.18 in South 3.5 mph 3.5 mph 60 % 0.00 in
10:42 66.2 °F 50.5 °F 30.18 in SSE 1.2 mph 1.2 mph 57 % 0.00 in
10:47 66.4 °F 51.2 °F 30.17 in SSE 1.2 mph 1.2 mph 58 % 0.00 in
10:52 66.9 °F 52.1 °F 30.17 in Calm     59 % 0.00 in
10:57 67.3 °F 51.1 °F 30.17 in NW 1.2 mph 1.2 mph 56 % 0.00 in
11:02 67.7 °F 51.4 °F 30.17 in SSW 1.2 mph 1.2 mph 56 % 0.00 in
11:07 68.1 °F 51.8 °F 30.17 in ESE 1.2 mph 1.2 mph 56 % 0.00 in
11:12 68.4 °F 52.1 °F 30.16 in WNW 1.2 mph 1.2 mph 56 % 0.00 in
11:17 68.3 °F 51.5 °F 30.16 in Calm     55 % 0.00 in
11:32 68.1 °F 51.3 °F 30.15 in Calm     55 % 0.00 in
11:37 68.6 °F 50.8 °F 30.15 in WNW 1.2 mph   53 % 0.00 in
11:47 69.3 °F 51.4 °F 30.15 in WNW 2.3 mph 2.3 mph 53 % 0.00 in
11:52 69.3 °F 49.9 °F 30.15 in NW 1.2 mph 1.2 mph 50 % 0.00 in
11:57 69.5 °F 52.6 °F 30.14 in NW 1.2 mph 1.2 mph 55 % 0.00 in
12:03 69.8 °F 51.4 °F 30.14 in Calm     52 % 0.00 in
12:08 70.3 °F 52.4 °F 30.14 in NW 1.2 mph 1.2 mph 53 % 0.00 in
12:13 70.3 °F 51.8 °F 30.14 in West 1.2 mph 1.2 mph 52 % 0.00 in
12:18 70.4 °F 52.4 °F 30.14 in Calm   0.1 mph 53 % 0.00 in
12:23 70.5 °F 51.5 °F 30.14 in NW 1.2 mph 1.2 mph 51 % 0.00 in
12:28 70.7 °F 52.2 °F 30.13 in West 2.0 mph 2.0 mph 52 % 0.00 in
12:33 71.2 °F 52.7 °F 30.13 in Calm     52 % 0.00 in
12:38 71.6 °F 52.0 °F 30.13 in WNW 2.3 mph 2.3 mph 50 % 0.00 in
12:43 71.8 °F 52.2 °F 30.13 in Calm     50 % 0.00 in
12:48 72.0 °F 52.9 °F 30.13 in Calm     51 % 0.00 in
12:53 72.3 °F 52.6 °F 30.12 in Calm     50 % 0.00 in
12:58 72.6 °F 52.3 °F 30.12 in ESE 1.2 mph   49 % 0.00 in
13:03 72.7 °F 52.4 °F 30.11 in Calm     49 % 0.00 in
13:08 72.9 °F 51.5 °F 30.11 in Calm     47 % 0.00 in
13:18 73.4 °F 51.9 °F 30.11 in NNE 1.2 mph   47 % 0.00 in
13:23 73.5 °F 50.9 °F 30.11 in NW 2.3 mph 2.3 mph 45 % 0.00 in
13:28 73.4 °F 50.8 °F 30.11 in NNW 1.2 mph 1.2 mph 45 % 0.00 in
13:38 73.6 °F 51.5 °F 30.11 in WNW 2.3 mph 2.3 mph 46 % 0.00 in
13:53 74.0 °F 51.9 °F 30.10 in Calm     46 % 0.00 in
14:03 74.1 °F 52.6 °F 30.09 in WNW 2.3 mph 2.3 mph 47 % 0.00 in
14:18 74.3 °F 52.2 °F 30.09 in Calm   0.1 mph 46 % 0.00 in
14:23 74.4 °F 52.3 °F 30.09 in WNW 2.3 mph 2.3 mph 46 % 0.00 in
14:33 74.4 °F 51.7 °F 30.09 in NW 2.3 mph 2.3 mph 45 % 0.00 in
14:38 74.4 °F 51.7 °F 30.08 in Calm   0.5 mph 45 % 0.00 in
14:53 74.3 °F 51.0 °F 30.08 in WNW 2.3 mph 2.3 mph 44 % 0.00 in
14:58 74.2 °F 51.5 °F 30.08 in NW 2.3 mph 2.3 mph 45 % 0.00 in
15:03 74.2 °F 51.5 °F 30.08 in NW 1.2 mph   45 % 0.00 in
15:08 74.2 °F 50.9 °F 30.07 in NW 2.3 mph 2.3 mph 44 % 0.00 in
15:13 74.2 °F 50.9 °F 30.07 in NNW 1.2 mph   44 % 0.00 in
15:18 74.1 °F 50.8 °F 30.08 in Calm     44 % 0.00 in
15:23 74.0 °F 51.3 °F 30.08 in WNW 2.3 mph 2.3 mph 45 % 0.00 in
15:28 73.9 °F 51.8 °F 30.08 in Calm     46 % 0.00 in
15:33 73.7 °F 52.2 °F 30.07 in North 1.2 mph   47 % 0.00 in
15:43 73.5 °F 51.4 °F 30.07 in Calm     46 % 0.00 in
15:48 73.3 °F 51.8 °F 30.07 in WNW 1.2 mph   47 % 0.00 in
15:53 73.0 °F 52.7 °F 30.07 in Calm     49 % 0.00 in
16:03 72.4 °F 52.7 °F 30.07 in Calm     50 % 0.00 in
16:08 71.8 °F 53.2 °F 30.07 in Calm     52 % 0.00 in
16:13 71.2 °F 53.2 °F 30.07 in Calm     53 % 0.00 in
16:23 70.1 °F 52.7 °F 30.08 in Calm     54 % 0.00 in
16:33 69.2 °F 52.3 °F 30.07 in Calm     55 % 0.00 in
16:44 68.1 °F 52.8 °F 30.07 in Calm     58 % 0.00 in
16:49 67.3 °F 52.9 °F 30.08 in Calm     60 % 0.00 in
16:54 67.1 °F 52.7 °F 30.08 in Calm     60 % 0.00 in
16:59 66.8 °F 52.9 °F 30.08 in Calm     61 % 0.00 in
17:09 66.0 °F 52.6 °F 30.08 in Calm     62 % 0.00 in
17:24 64.5 °F 52.9 °F 30.08 in Calm     66 % 0.00 in
17:29 64.2 °F 52.6 °F 30.09 in Calm     66 % 0.00 in
17:34 64.0 °F 52.8 °F 30.09 in Calm     67 % 0.00 in
17:39 63.7 °F 52.5 °F 30.09 in Calm     67 % 0.00 in
17:44 63.3 °F 52.2 °F 30.09 in Calm     67 % 0.00 in
17:49 63.1 °F 52.4 °F 30.09 in Calm     68 % 0.00 in
17:54 62.8 °F 52.5 °F 30.09 in Calm     69 % 0.00 in
18:04 62.4 °F 52.9 °F 30.09 in Calm     71 % 0.00 in
18:09 62.0 °F 52.5 °F 30.09 in Calm     71 % 0.00 in
18:14 61.7 °F 52.6 °F 30.09 in Calm     72 % 0.00 in
18:19 61.4 °F 52.7 °F 30.09 in Calm     73 % 0.00 in
18:24 61.1 °F 52.4 °F 30.09 in Calm     73 % 0.00 in
18:29 60.9 °F 52.2 °F 30.09 in Calm     73 % 0.00 in
18:39 60.4 °F 52.4 °F 30.10 in Calm     75 % 0.00 in
18:49 59.8 °F 52.6 °F 30.10 in Calm     77 % 0.00 in
18:54 59.4 °F 52.5 °F 30.10 in Calm     78 % 0.00 in
18:59 58.9 °F 52.4 °F 30.10 in Calm     79 % 0.00 in
19:04 58.4 °F 52.3 °F 30.09 in Calm     80 % 0.00 in
19:09 58.0 °F 51.9 °F 30.10 in Calm     80 % 0.00 in
19:15 57.9 °F 52.4 °F 30.10 in Calm     82 % 0.00 in
19:20 57.7 °F 52.2 °F 30.10 in Calm     82 % 0.00 in
19:22 57.7 °F 52.2 °F 30.10 in Calm     82 % 0.00 in
19:23 57.6 °F 52.1 °F 30.10 in Calm     82 % 0.00 in
19:26 57.5 °F 52.0 °F 30.10 in Calm     82 % 0.00 in
19:31 57.3 °F 51.9 °F 30.10 in Calm     82 % 0.00 in
19:36 57.2 °F 52.1 °F 30.10 in Calm     83 % 0.00 in
19:41 57.2 °F 52.1 °F 30.10 in Calm     83 % 0.00 in
19:46 57.1 °F 51.7 °F 30.10 in Calm     82 % 0.00 in
19:51 56.9 °F 51.8 °F 30.10 in Calm     83 % 0.00 in
19:56 56.6 °F 51.5 °F 30.10 in Calm     83 % 0.00 in
20:01 56.2 °F 51.4 °F 30.11 in Calm     84 % 0.00 in
20:07 55.7 °F 50.9 °F 30.11 in Calm     84 % 0.00 in
20:12 55.5 °F 51.1 °F 30.11 in Calm     85 % 0.00 in
20:17 55.4 °F 51.3 °F 30.11 in Calm     86 % 0.00 in
20:22 55.3 °F 51.2 °F 30.11 in Calm     86 % 0.00 in
20:37 55.0 °F 51.2 °F 30.11 in Calm     87 % 0.00 in
20:42 55.0 °F 51.2 °F 30.12 in Calm     87 % 0.00 in
20:52 56.0 °F 51.6 °F 30.12 in Calm     85 % 0.00 in
20:57 56.1 °F 51.3 °F 30.12 in Calm     84 % 0.00 in
21:02 56.1 °F 51.0 °F 30.12 in Calm     83 % 0.00 in
21:07 56.1 °F 51.0 °F 30.12 in Calm     83 % 0.00 in
21:12 56.2 °F 51.1 °F 30.12 in Calm     83 % 0.00 in
21:22 55.9 °F 50.8 °F 30.13 in Calm     83 % 0.00 in
21:27 55.9 °F 50.8 °F 30.13 in Calm     83 % 0.00 in
21:32 55.7 °F 50.6 °F 30.13 in Calm     83 % 0.00 in
21:42 55.4 °F 50.3 °F 30.13 in Calm     83 % 0.00 in
21:47 55.6 °F 50.5 °F 30.13 in Calm     83 % 0.00 in
21:52 55.4 °F 50.0 °F 30.13 in Calm     82 % 0.00 in
21:57 55.1 °F 50.4 °F 30.13 in Calm     84 % 0.00 in
22:07 54.7 °F 50.6 °F 30.14 in Calm     86 % 0.00 in
22:12 54.5 °F 50.1 °F 30.14 in Calm     85 % 0.00 in
22:17 54.2 °F 50.1 °F 30.14 in Calm     86 % 0.00 in
22:22 53.9 °F 50.1 °F 30.13 in Calm     87 % 0.00 in
22:27 53.6 °F 49.8 °F 30.14 in Calm     87 % 0.00 in
22:32 53.4 °F 49.9 °F 30.14 in Calm     88 % 0.00 in
22:37 53.2 °F 49.7 °F 30.13 in Calm     88 % 0.00 in
22:43 53.0 °F 49.8 °F 30.13 in Calm     89 % 0.00 in
22:53 53.2 °F 49.7 °F 30.13 in Calm     88 % 0.00 in
22:58 53.1 °F 49.6 °F 30.13 in Calm     88 % 0.00 in
23:03 52.9 °F 49.4 °F 30.13 in Calm     88 % 0.00 in
23:08 52.6 °F 49.1 °F 30.13 in Calm     88 % 0.00 in
23:13 52.4 °F 49.3 °F 30.13 in Calm     89 % 0.00 in
23:18 52.2 °F 49.1 °F 30.12 in Calm     89 % 0.00 in
23:23 52.0 °F 48.9 °F 30.12 in Calm     89 % 0.00 in
23:28 51.9 °F 48.8 °F 30.12 in Calm     89 % 0.00 in
23:38 51.7 °F 48.9 °F 30.12 in Calm     90 % 0.00 in
23:48 51.6 °F 48.8 °F 30.12 in Calm     90 % 0.00 in
23:53 51.6 °F 48.8 °F 30.12 in Calm     90 % 0.00 in
Park Place, Exeter, Tulare County, California, USA
Compliments of Weather Underground - 2.5 mb